Time;durP1;ratioP1;P1;durP2;ratioP2;P2;SDS_P1;SDS_P2;PMS_P1;PMS_P2;Temp;Humidity;BMP_temperature;BMP_pressure;BME280_temperature;BME280_humidity;BME280_pressure;Samples;Min_cycle;Max_cycle;Signal;HPM_P1;HPM_P2
2024/04/06 00:02:18;;;;;;;3.75;1.40;;;15.00;99.90;;;;;;5070360;28;20091;-70
2024/04/06 00:04:44;;;;;;;5.88;2.22;;;15.10;99.90;;;;;;5054464;28;20029;-70
2024/04/06 00:07:10;;;;;;;5.43;2.40;;;15.00;99.90;;;;;;5062406;28;20557;-71
2024/04/06 00:09:35;;;;;;;6.00;1.77;;;15.00;99.90;;;;;;5060924;28;20032;-70
2024/04/06 00:12:03;;;;;;;3.85;1.98;;;15.00;99.90;;;;;;5047120;28;20029;-70
2024/04/06 00:14:29;;;;;;;4.00;1.77;;;15.00;99.90;;;;;;5043766;28;20033;-69
2024/04/06 00:16:54;;;;;;;6.20;1.73;;;15.00;99.90;;;;;;5053685;28;20644;-71
2024/04/06 00:19:20;;;;;;;3.53;1.58;;;15.00;99.90;;;;;;5064840;28;20033;-70
2024/04/06 00:21:45;;;;;;;3.85;1.55;;;15.00;99.90;;;;;;5044702;28;20029;-70
2024/04/06 00:24:11;;;;;;;3.88;1.50;;;15.00;99.90;;;;;;5061084;28;20028;-71
2024/04/06 00:26:37;;;;;;;5.45;1.30;;;15.00;99.90;;;;;;5062800;28;20489;-70
2024/04/06 00:29:02;;;;;;;5.20;1.50;;;15.00;99.90;;;;;;5066153;28;20413;-70
2024/04/06 00:31:28;;;;;;;5.32;1.45;;;15.00;99.90;;;;;;5060190;28;20120;-70
2024/04/06 00:33:53;;;;;;;6.40;1.40;;;15.00;99.90;;;;;;5047323;28;20037;-69
2024/04/06 00:36:19;;;;;;;7.18;1.50;;;15.00;99.90;;;;;;5051768;28;20067;-69
2024/04/06 00:38:45;;;;;;;1.98;1.05;;;15.00;99.90;;;;;;5047307;28;20044;-71
2024/04/06 00:41:10;;;;;;;4.10;1.08;;;14.90;99.90;;;;;;5048941;28;20620;-70
2024/04/06 00:43:37;;;;;;;5.80;1.35;;;15.00;99.90;;;;;;5046742;28;20044;-69
2024/04/06 00:46:03;;;;;;;4.15;1.27;;;14.90;99.90;;;;;;5062518;28;20074;-73
2024/04/06 00:48:28;;;;;;;8.68;1.02;;;15.00;99.90;;;;;;5067504;28;20044;-69
2024/04/06 00:51:03;;;;;;;4.88;1.38;;;15.00;99.90;;;;;;5066668;28;20521;-70
2024/04/06 00:53:28;;;;;;;2.95;1.10;;;15.00;99.90;;;;;;5052412;28;20094;-70
2024/04/06 00:55:54;;;;;;;3.67;1.48;;;15.00;99.90;;;;;;5061612;28;20520;-70
2024/04/06 00:58:20;;;;;;;9.15;1.48;;;15.00;99.90;;;;;;5059067;28;20032;-70
2024/04/06 01:00:45;;;;;;;3.70;1.35;;;15.00;99.90;;;;;;5057560;28;20460;-71
2024/04/06 01:03:11;;;;;;;3.88;1.92;;;15.00;99.90;;;;;;5058377;28;20056;-69
2024/04/06 01:05:37;;;;;;;6.85;1.48;;;15.00;99.90;;;;;;5063602;28;20047;-71
2024/04/06 01:08:02;;;;;;;3.72;1.73;;;15.10;99.90;;;;;;5061097;28;20033;-70
2024/04/06 01:10:28;;;;;;;4.10;1.63;;;15.10;99.90;;;;;;5062942;28;20174;-70
2024/04/06 01:12:54;;;;;;;3.13;1.42;;;15.00;99.90;;;;;;5061562;28;20063;-69
2024/04/06 01:15:20;;;;;;;2.53;1.15;;;15.00;99.90;;;;;;5061872;28;20033;-70
2024/04/06 01:17:45;;;;;;;3.95;1.58;;;15.00;99.90;;;;;;5057639;28;20033;-70
2024/04/06 01:20:12;;;;;;;7.13;1.30;;;14.90;99.90;;;;;;5061132;28;20033;-71
2024/04/06 01:22:38;;;;;;;2.90;1.45;;;14.90;99.90;;;;;;5060596;28;20556;-70
2024/04/06 01:25:04;;;;;;;3.05;1.25;;;14.90;99.90;;;;;;5063573;28;20036;-69
2024/04/06 01:27:30;;;;;;;2.38;1.33;;;14.80;99.90;;;;;;5062102;28;20061;-71
2024/04/06 01:29:56;;;;;;;4.47;1.20;;;14.80;99.90;;;;;;5059892;28;20032;-70
2024/04/06 01:32:22;;;;;;;4.00;1.30;;;14.70;99.90;;;;;;5051237;28;20052;-71
2024/04/06 01:34:47;;;;;;;4.03;1.23;;;14.60;99.90;;;;;;5061524;28;20123;-71
2024/04/06 01:37:15;;;;;;;4.53;1.38;;;14.60;99.90;;;;;;5056505;28;20388;-71
2024/04/06 01:39:41;;;;;;;;;;;14.60;99.90;;;;;;5062964;28;20115;-71
2024/04/06 01:42:06;;;;;;;7.38;1.63;;;14.50;99.90;;;;;;5059150;28;20003;-69
2024/04/06 01:44:32;;;;;;;4.38;1.60;;;14.40;99.90;;;;;;5058886;28;23208;-70
2024/04/06 01:46:58;;;;;;;5.57;1.80;;;14.40;99.90;;;;;;5059251;28;20060;-70
2024/04/06 01:49:24;;;;;;;5.55;1.38;;;14.30;99.90;;;;;;5061586;28;20059;-70
2024/04/06 01:51:50;;;;;;;5.82;1.45;;;14.20;99.90;;;;;;5057353;28;20490;-70
2024/04/06 01:54:15;;;;;;;3.10;0.93;;;14.20;99.90;;;;;;5059382;28;20055;-69
2024/04/06 01:56:41;;;;;;;5.47;1.33;;;14.10;99.90;;;;;;5056844;28;20712;-70
2024/04/06 01:59:08;;;;;;;4.35;1.40;;;14.10;99.90;;;;;;5058073;28;20047;-69
2024/04/06 02:01:33;;;;;;;3.92;1.17;;;14.00;99.90;;;;;;5058149;28;20467;-71
2024/04/06 02:03:59;;;;;;;3.83;1.20;;;13.90;99.90;;;;;;5062893;28;20025;-70
2024/04/06 02:06:24;;;;;;;1.83;1.13;;;13.90;99.90;;;;;;5059506;28;20074;-69
2024/04/06 02:08:50;;;;;;;2.10;1.23;;;13.80;99.90;;;;;;5060610;28;20044;-70
2024/04/06 02:11:15;;;;;;;8.55;1.50;;;13.80;99.90;;;;;;5058840;28;20605;-72
2024/04/06 02:13:41;;;;;;;3.53;1.15;;;13.70;99.90;;;;;;5062813;28;20036;-69
2024/04/06 02:16:07;;;;;;;6.95;1.50;;;13.60;99.90;;;;;;5062423;28;20095;-70
2024/04/06 02:18:32;;;;;;;4.18;1.45;;;13.50;99.90;;;;;;5056412;28;20055;-69
2024/04/06 02:20:58;;;;;;;4.60;1.40;;;13.50;99.90;;;;;;5055765;28;20036;-71
2024/04/06 02:23:24;;;;;;;4.80;1.70;;;13.40;99.90;;;;;;5054278;28;20025;-69
2024/04/06 02:25:49;;;;;;;4.85;1.63;;;13.30;99.90;;;;;;5032568;28;20026;-70
2024/04/06 02:28:15;;;;;;;3.45;1.30;;;13.20;99.90;;;;;;5042500;28;20688;-71
2024/04/06 02:30:41;;;;;;;4.97;1.63;;;13.20;99.90;;;;;;5046691;28;20060;-71
2024/04/06 02:33:06;;;;;;;7.10;1.70;;;13.10;99.90;;;;;;5062949;28;20524;-70
2024/04/06 02:35:32;;;;;;;3.10;1.70;;;13.00;99.90;;;;;;5065334;28;20049;-70
2024/04/06 02:37:57;;;;;;;2.88;1.60;;;12.90;99.90;;;;;;5062939;28;20071;-70
2024/04/06 02:40:23;;;;;;;6.80;1.70;;;12.80;99.90;;;;;;5067400;28;20037;-68
2024/04/06 02:42:52;;;;;;;7.15;2.45;;;12.80;99.90;;;;;;5062135;28;20029;-71
2024/04/06 02:45:17;;;;;;;4.32;1.50;;;12.80;99.90;;;;;;5062210;28;20044;-70
2024/04/06 02:47:43;;;;;;;6.75;2.00;;;12.80;99.90;;;;;;5063632;28;20373;-69
2024/04/06 02:50:10;;;;;;;3.75;1.75;;;12.60;99.90;;;;;;5064254;28;20035;-69
2024/04/06 02:52:36;;;;;;;4.23;1.77;;;12.60;99.90;;;;;;5060093;28;20041;-70
2024/04/06 02:55:04;;;;;;;5.93;2.00;;;12.60;99.90;;;;;;5062804;28;20090;-71
2024/04/06 02:57:30;;;;;;;4.53;1.90;;;12.60;99.90;;;;;;5062708;28;20482;-70
2024/04/06 02:59:55;;;;;;;3.45;1.67;;;12.60;99.90;;;;;;5062513;28;20028;-71
2024/04/06 03:02:22;;;;;;;4.30;1.90;;;12.60;99.90;;;;;;5056475;28;20021;-69
2024/04/06 03:04:48;;;;;;;5.10;2.13;;;12.50;99.90;;;;;;5047811;28;20116;-71
2024/04/06 03:07:14;;;;;;;6.32;2.50;;;12.50;99.90;;;;;;5058463;28;20092;-70
2024/04/06 03:09:40;;;;;;;4.70;2.03;;;12.50;99.90;;;;;;5070259;28;20020;-73
2024/04/06 03:12:06;;;;;;;8.45;2.10;;;12.50;99.90;;;;;;5066349;28;20024;-69
2024/04/06 03:14:32;;;;;;;5.05;1.85;;;12.50;99.90;;;;;;5065326;28;20036;-70
2024/04/06 03:16:58;;;;;;;5.53;2.03;;;12.50;99.90;;;;;;5064361;28;20425;-70
2024/04/06 03:19:24;;;;;;;4.60;1.45;;;12.50;99.90;;;;;;5065426;28;20040;-70
2024/04/06 03:21:51;;;;;;;4.47;1.83;;;12.50;99.90;;;;;;5044254;28;20468;-72
2024/04/06 03:24:16;;;;;;;4.68;2.10;;;12.40;99.90;;;;;;5064214;28;20028;-69
2024/04/06 03:26:45;;;;;;;2.97;1.60;;;12.40;99.90;;;;;;5063295;28;20029;-71
2024/04/06 03:29:16;;;;;;;6.43;2.20;;;12.40;99.90;;;;;;5065798;28;20036;-71
2024/04/06 03:31:41;;;;;;;8.32;2.25;;;12.40;99.90;;;;;;5068706;28;20111;-70
2024/04/06 03:34:07;;;;;;;2.92;1.40;;;12.40;99.90;;;;;;5063494;28;20100;-72
2024/04/06 03:36:32;;;;;;;4.30;2.10;;;12.30;99.90;;;;;;5068093;28;20503;-69
2024/04/06 03:38:58;;;;;;;3.97;2.00;;;12.30;99.90;;;;;;5063535;28;20055;-71
2024/04/06 03:41:24;;;;;;;5.78;1.88;;;12.30;99.90;;;;;;5062588;28;20058;-70
2024/04/06 03:43:50;;;;;;;11.00;2.20;;;12.30;99.90;;;;;;5063136;28;20743;-70
2024/04/06 03:46:15;;;;;;;8.13;2.20;;;12.20;99.90;;;;;;5057285;28;20545;-71
2024/04/06 03:48:41;;;;;;;6.70;1.80;;;12.20;99.90;;;;;;5059624;28;20032;-71
2024/04/06 03:51:07;;;;;;;7.45;1.92;;;12.30;99.90;;;;;;5057009;28;20057;-71
2024/04/06 03:53:35;;;;;;;3.97;1.90;;;12.30;99.90;;;;;;5059963;28;20035;-71
2024/04/06 03:56:01;;;;;;;;;;;12.30;99.90;;;;;;5060238;28;20090;-72
2024/04/06 03:58:27;;;;;;;6.28;2.13;;;12.20;99.90;;;;;;5063226;28;19924;-70
2024/04/06 04:00:53;;;;;;;5.38;1.83;;;12.20;99.90;;;;;;5060389;28;20056;-71
2024/04/06 04:03:19;;;;;;;3.92;2.08;;;12.20;99.90;;;;;;5066768;28;20060;-71
2024/04/06 04:05:44;;;;;;;6.68;1.95;;;12.20;99.90;;;;;;5061468;28;20123;-73
2024/04/06 04:08:10;;;;;;;3.85;1.77;;;12.20;99.90;;;;;;5064220;28;20086;-71
2024/04/06 04:10:36;;;;;;;4.13;1.50;;;12.20;99.90;;;;;;5067304;28;20033;-70
2024/04/06 04:13:02;;;;;;;7.22;2.00;;;12.20;99.90;;;;;;5060452;28;20017;-72
2024/04/06 04:15:28;;;;;;;3.72;1.85;;;12.30;99.90;;;;;;5064153;28;20028;-70
2024/04/06 04:17:54;;;;;;;3.15;1.58;;;12.30;99.90;;;;;;5061641;28;20571;-71
2024/04/06 04:20:19;;;;;;;4.65;1.85;;;12.30;99.90;;;;;;5059977;28;20129;-69
2024/04/06 04:22:46;;;;;;;6.45;1.90;;;12.40;99.90;;;;;;5056884;28;20047;-72
2024/04/06 04:25:12;;;;;;;3.10;1.85;;;12.40;99.90;;;;;;5061909;28;20025;-71
2024/04/06 04:27:38;;;;;;;3.33;1.85;;;12.40;99.90;;;;;;5060790;28;20039;-71
2024/04/06 04:30:04;;;;;;;5.25;1.95;;;12.50;99.90;;;;;;5063602;28;20049;-70
2024/04/06 04:32:29;;;;;;;2.72;1.63;;;12.50;99.90;;;;;;5062834;28;20136;-70
2024/04/06 04:34:55;;;;;;;4.22;1.80;;;12.50;99.90;;;;;;5066056;28;20479;-71
2024/04/06 04:37:20;;;;;;;3.67;1.70;;;12.50;99.90;;;;;;5063192;28;20074;-72
2024/04/06 04:39:46;;;;;;;7.20;1.52;;;12.50;99.90;;;;;;5064004;28;20029;-70
2024/04/06 04:42:11;;;;;;;2.85;1.50;;;12.60;99.90;;;;;;5053923;28;20037;-70
2024/04/06 04:44:37;;;;;;;4.50;1.85;;;12.60;99.90;;;;;;5055921;28;20571;-67
2024/04/06 04:47:03;;;;;;;3.63;1.40;;;12.70;99.90;;;;;;5060592;28;20044;-66
2024/04/06 04:49:28;;;;;;;4.03;1.65;;;12.70;99.90;;;;;;5060430;28;20128;-66
2024/04/06 04:51:54;;;;;;;2.38;1.38;;;12.80;99.90;;;;;;5063681;28;20036;-66
2024/04/06 04:54:20;;;;;;;6.38;1.58;;;12.80;99.90;;;;;;5060135;28;20078;-66
2024/04/06 04:56:46;;;;;;;4.85;1.70;;;12.80;99.90;;;;;;5062110;28;20036;-66
2024/04/06 04:59:11;;;;;;;5.53;1.63;;;12.90;99.90;;;;;;5062643;28;20418;-67
2024/04/06 05:01:37;;;;;;;3.22;1.55;;;12.90;99.90;;;;;;5060604;28;20037;-68
2024/04/06 05:04:03;;;;;;;1.45;1.33;;;12.90;99.90;;;;;;5061593;28;20113;-67
2024/04/06 05:06:28;;;;;;;4.78;1.23;;;12.80;99.90;;;;;;5062469;28;20037;-66
2024/04/06 05:08:54;;;;;;;3.10;1.50;;;12.90;99.90;;;;;;5065653;28;21209;-66
2024/04/06 05:11:19;;;;;;;5.18;1.70;;;12.90;99.90;;;;;;5065341;28;20106;-66
2024/04/06 05:13:45;;;;;;;4.18;1.67;;;13.00;99.90;;;;;;5058621;28;20036;-67
2024/04/06 05:16:10;;;;;;;3.47;1.67;;;13.00;99.90;;;;;;5061331;28;20532;-67
2024/04/06 05:18:36;;;;;;;2.28;1.27;;;13.10;99.90;;;;;;5061575;28;20127;-66
2024/04/06 05:21:02;;;;;;;4.45;1.83;;;13.10;99.90;;;;;;5063411;28;20036;-66
2024/04/06 05:23:28;;;;;;;7.05;1.52;;;13.10;99.90;;;;;;5063481;28;20033;-66
2024/04/06 05:25:54;;;;;;;1.65;1.20;;;13.20;99.90;;;;;;5060336;28;20039;-71
2024/04/06 05:28:21;;;;;;;3.97;1.58;;;13.20;99.90;;;;;;5056757;28;20056;-66
2024/04/06 05:30:48;;;;;;;4.40;1.63;;;13.20;99.90;;;;;;5065402;28;20588;-66
2024/04/06 05:33:15;;;;;;;3.47;1.38;;;13.20;99.90;;;;;;5063466;28;20123;-65
2024/04/06 05:35:42;;;;;;;4.55;1.63;;;13.30;99.90;;;;;;5063728;28;20033;-67
2024/04/06 05:38:07;;;;;;;3.22;1.15;;;13.30;99.90;;;;;;5063278;28;20051;-66
2024/04/06 05:40:36;;;;;;;2.30;1.17;;;13.30;99.90;;;;;;5063843;28;20036;-66
2024/04/06 05:43:02;;;;;;;2.55;1.38;;;13.40;99.90;;;;;;5061433;28;20055;-68
2024/04/06 05:45:27;;;;;;;5.20;1.55;;;13.40;99.90;;;;;;5066819;28;20459;-66
2024/04/06 05:47:53;;;;;;;2.90;1.73;;;13.40;99.90;;;;;;5064126;28;20516;-66
2024/04/06 05:50:19;;;;;;;5.88;1.65;;;13.40;99.90;;;;;;5062783;28;20029;-66
2024/04/06 05:52:45;;;;;;;3.88;1.27;;;13.50;99.90;;;;;;5057041;28;20043;-66
2024/04/06 05:55:10;;;;;;;3.20;1.88;;;13.50;99.90;;;;;;5053867;28;20033;-68
2024/04/06 05:57:36;;;;;;;5.40;1.70;;;13.50;99.90;;;;;;5058954;28;20028;-67
2024/04/06 06:00:01;;;;;;;2.47;1.20;;;13.60;99.90;;;;;;5058415;28;20494;-67
2024/04/06 06:02:27;;;;;;;2.17;1.30;;;13.60;99.90;;;;;;5058637;28;20029;-66
2024/04/06 06:04:53;;;;;;;4.28;1.27;;;13.60;99.90;;;;;;5064201;28;20033;-69
2024/04/06 06:07:20;;;;;;;4.47;1.38;;;13.60;99.90;;;;;;5056251;28;20132;-67
2024/04/06 06:09:46;;;;;;;3.35;1.33;;;13.70;99.90;;;;;;5065963;28;20903;-68
2024/04/06 06:12:11;;;;;;;5.32;1.60;;;13.70;99.90;;;;;;5064276;28;20033;-66
2024/04/06 06:14:37;;;;;;;3.67;1.10;;;13.80;99.90;;;;;;5064451;28;20452;-66
2024/04/06 06:17:03;;;;;;;4.15;1.38;;;13.80;99.90;;;;;;5066036;28;20064;-68
2024/04/06 06:19:28;;;;;;;5.70;1.42;;;13.90;99.90;;;;;;5064966;28;20040;-67
2024/04/06 06:21:54;;;;;;;4.32;1.33;;;14.00;99.90;;;;;;5056887;28;20036;-66
2024/04/06 06:24:19;;;;;;;2.30;1.20;;;14.10;99.90;;;;;;5064134;28;20043;-65
2024/04/06 06:26:45;;;;;;;5.18;1.42;;;14.10;99.90;;;;;;5060680;28;20106;-68
2024/04/06 06:29:10;;;;;;;4.13;1.52;;;14.20;99.90;;;;;;5064244;28;20028;-67
2024/04/06 06:31:36;;;;;;;4.05;1.33;;;14.30;99.90;;;;;;5063239;28;20497;-67
2024/04/06 06:34:02;;;;;;;3.58;1.05;;;14.30;99.90;;;;;;5058613;28;20036;-67
2024/04/06 06:36:27;;;;;;;2.80;1.33;;;14.40;99.90;;;;;;5062411;28;20089;-66
2024/04/06 06:38:54;;;;;;;2.30;0.88;;;14.50;99.90;;;;;;5065180;28;20029;-66
2024/04/06 06:41:20;;;;;;;3.90;1.20;;;14.60;99.90;;;;;;5060497;28;20667;-68
2024/04/06 06:43:46;;;;;;;4.72;1.42;;;14.70;99.90;;;;;;5062934;28;20120;-65
2024/04/06 06:46:11;;;;;;;2.60;1.00;;;14.80;99.90;;;;;;5065934;28;20100;-67
2024/04/06 06:48:37;;;;;;;4.78;1.73;;;14.90;99.90;;;;;;5066879;28;20071;-66
2024/04/06 06:51:02;;;;;;;4.20;1.00;;;14.90;99.90;;;;;;5059974;28;20036;-67
2024/04/06 06:53:28;;;;;;;1.85;0.93;;;15.00;99.90;;;;;;5061707;28;20127;-67
2024/04/06 06:55:54;;;;;;;6.65;1.15;;;15.10;99.90;;;;;;5066859;28;20551;-66
2024/04/06 06:58:19;;;;;;;5.32;1.75;;;15.20;99.90;;;;;;5044087;28;20389;-66
2024/04/06 07:00:46;;;;;;;3.22;0.80;;;15.30;99.90;;;;;;5058593;28;20040;-66
2024/04/06 07:03:11;;;;;;;2.30;0.88;;;15.40;99.90;;;;;;5061536;28;20547;-68
2024/04/06 07:05:37;;;;;;;5.10;1.23;;;15.60;99.90;;;;;;5063987;28;20033;-66
2024/04/06 07:08:03;;;;;;;2.42;0.90;;;15.60;99.90;;;;;;5056883;28;20037;-67
2024/04/06 07:10:28;;;;;;;2.63;0.90;;;15.60;99.90;;;;;;5066806;28;20045;-67
2024/04/06 07:12:54;;;;;;;4.88;0.73;;;15.70;99.90;;;;;;5059091;28;20025;-68
2024/04/06 07:15:19;;;;;;;7.65;1.77;;;15.70;99.90;;;;;;5062726;28;20067;-66
2024/04/06 07:17:45;;;;;;;3.50;0.90;;;15.80;99.90;;;;;;5060906;28;20048;-67
2024/04/06 07:20:10;;;;;;;3.40;1.00;;;15.80;99.90;;;;;;5059029;28;20076;-68
2024/04/06 07:22:39;;;;;;;5.82;1.00;;;15.90;99.90;;;;;;5061273;28;20052;-66
2024/04/06 07:25:05;;;;;;;3.78;0.85;;;16.00;99.90;;;;;;5064386;28;20113;-66
2024/04/06 07:27:31;;;;;;;1.00;0.60;;;16.00;99.90;;;;;;5067586;28;20058;-68
2024/04/06 07:29:56;;;;;;;5.07;0.75;;;16.10;99.90;;;;;;5068492;28;20024;-65
2024/04/06 07:32:22;;;;;;;3.58;0.77;;;16.10;99.90;;;;;;5065521;28;20043;-67
2024/04/06 07:34:47;;;;;;;0.85;0.55;;;16.20;99.90;;;;;;5067348;28;20109;-65
2024/04/06 07:37:13;;;;;;;1.27;0.73;;;16.20;99.90;;;;;;5065223;28;20555;-67
2024/04/06 07:39:39;;;;;;;3.70;1.10;;;16.30;99.90;;;;;;5065247;28;20107;-67
2024/04/06 07:42:04;;;;;;;6.57;0.60;;;16.30;99.90;;;;;;5059996;28;20649;-66
2024/04/06 07:44:30;;;;;;;3.97;0.80;;;16.40;99.90;;;;;;5063710;28;20689;-66
2024/04/06 07:46:56;;;;;;;1.88;0.90;;;16.40;99.90;;;;;;5058324;28;20071;-65
2024/04/06 07:49:21;;;;;;;4.13;2.55;;;16.50;99.90;;;;;;5057714;28;20037;-70
2024/04/06 07:51:47;;;;;;;1.23;0.70;;;16.50;99.90;;;;;;5060263;28;20072;-67
2024/04/06 07:54:12;;;;;;;1.88;1.02;;;16.60;99.90;;;;;;5066041;28;20035;-67
2024/04/06 07:56:38;;;;;;;2.35;0.75;;;16.70;99.90;;;;;;5059342;28;20040;-67
2024/04/06 07:59:04;;;;;;;2.22;0.60;;;16.80;99.90;;;;;;5062985;28;20025;-66
2024/04/06 08:01:30;;;;;;;1.90;0.57;;;16.90;99.90;;;;;;5057404;28;20082;-66
2024/04/06 08:03:55;;;;;;;3.50;0.80;;;17.00;99.90;;;;;;5065351;28;20047;-66
2024/04/06 08:06:21;;;;;;;4.70;1.00;;;17.10;99.90;;;;;;5071858;28;20050;-69
2024/04/06 08:08:46;;;;;;;3.78;0.80;;;17.20;99.90;;;;;;5068117;28;20041;-67
2024/04/06 08:11:12;;;;;;;6.13;1.55;;;17.30;99.90;;;;;;5057017;28;20124;-68
2024/04/06 08:13:38;;;;;;;2.75;0.60;;;17.40;99.90;;;;;;5041562;28;20082;-66
2024/04/06 08:16:04;;;;;;;2.17;0.85;;;17.50;99.90;;;;;;5039916;28;20033;-67
2024/04/06 08:18:30;;;;;;;1.80;0.63;;;17.50;99.90;;;;;;5034147;28;20437;-67
2024/04/06 08:20:55;;;;;;;2.38;0.55;;;17.60;99.90;;;;;;5042018;28;20178;-67
2024/04/06 08:23:21;;;;;;;4.00;0.70;;;17.70;99.90;;;;;;5043839;28;20033;-68
2024/04/06 08:25:50;;;;;;;1.77;0.90;;;17.70;99.90;;;;;;5049052;28;20055;-66
2024/04/06 08:28:15;;;;;;;1.63;0.60;;;17.70;99.90;;;;;;5060202;28;20035;-67
2024/04/06 08:30:41;;;;;;;1.58;0.80;;;17.80;99.90;;;;;;5060581;28;20033;-72
2024/04/06 08:33:06;;;;;;;1.33;0.70;;;17.90;99.90;;;;;;5046868;28;20052;-67
2024/04/06 08:35:37;;;;;;;2.80;0.70;;;18.00;99.90;;;;;;5040268;28;20557;-67
2024/04/06 08:38:04;;;;;;;1.70;0.60;;;18.00;99.90;;;;;;5043444;28;20033;-67
2024/04/06 08:40:30;;;;;;;4.10;0.82;;;18.00;99.90;;;;;;5045836;28;20048;-67
2024/04/06 08:42:58;;;;;;;2.45;0.80;;;18.10;99.90;;;;;;5068028;28;20040;-66
2024/04/06 08:45:27;;;;;;;3.75;0.63;;;18.20;99.90;;;;;;5052713;28;20421;-67
2024/04/06 08:47:54;;;;;;;2.15;0.80;;;18.20;99.90;;;;;;5056113;28;20116;-66
2024/04/06 08:50:20;;;;;;;5.13;0.67;;;18.20;99.90;;;;;;5056524;28;20099;-67
2024/04/06 08:52:45;;;;;;;2.95;0.60;;;18.30;99.90;;;;;;5055101;28;20139;-67
2024/04/06 08:55:11;;;;;;;2.00;0.40;;;18.30;99.90;;;;;;5044749;28;20178;-69
2024/04/06 08:57:39;;;;;;;2.40;0.82;;;18.30;99.90;;;;;;5026922;28;20649;-66
2024/04/06 09:00:12;;;;;;;2.17;0.70;;;18.30;99.90;;;;;;5052535;28;20107;-67
2024/04/06 09:02:39;;;;;;;0.82;0.55;;;18.40;99.90;;;;;;5059959;28;20036;-67
2024/04/06 09:05:05;;;;;;;0.50;0.50;;;18.50;99.90;;;;;;5060880;28;20036;-67
2024/04/06 09:07:31;;;;;;;1.42;0.60;;;18.60;99.90;;;;;;5064806;28;20028;-67
2024/04/06 09:09:57;;;;;;;0.70;0.68;;;18.70;99.90;;;;;;5064976;28;20130;-68
2024/04/06 09:12:22;;;;;;;2.33;0.75;;;18.80;99.90;;;;;;5060775;28;20393;-66
2024/04/06 09:14:51;;;;;;;1.35;0.45;;;18.90;99.90;;;;;;5059413;28;20397;-66
2024/04/06 09:17:18;;;;;;;1.23;0.68;;;18.90;99.90;;;;;;5067200;28;20230;-66
2024/04/06 09:19:44;;;;;;;5.15;0.60;;;19.00;99.90;;;;;;5063051;28;20032;-68
2024/04/06 09:22:10;;;;;;;1.58;0.60;;;19.10;99.90;;;;;;5066102;28;20454;-68
2024/04/06 09:24:37;;;;;;;1.77;0.70;;;19.20;99.90;;;;;;5067325;28;20039;-68
2024/04/06 09:27:04;;;;;;;3.07;1.17;;;19.20;99.90;;;;;;5061757;28;20083;-67
2024/04/06 09:29:30;;;;;;;3.33;1.08;;;19.30;99.90;;;;;;5063581;28;20304;-67
2024/04/06 09:32:00;;;;;;;2.70;0.75;;;19.30;99.90;;;;;;5063114;28;20436;-69
2024/04/06 09:34:26;;;;;;;1.80;1.00;;;19.40;99.90;;;;;;5057605;28;20068;-68
2024/04/06 09:37:02;;;;;;;1.45;0.77;;;19.50;99.90;;;;;;5059168;28;20741;-68
2024/04/06 09:39:32;;;;;;;2.88;0.90;;;19.50;99.90;;;;;;5046869;28;20123;-68
2024/04/06 09:41:59;;;;;;;3.53;0.68;;;19.50;99.90;;;;;;5061789;28;20064;-68
2024/04/06 09:44:27;;;;;;;3.30;0.90;;;19.60;99.90;;;;;;5053761;28;20048;-68
2024/04/06 09:46:52;;;;;;;;;;;19.70;99.90;;;;;;5066812;28;20040;-68
2024/04/06 09:49:18;;;;;;;4.18;0.82;;;19.70;99.90;;;;;;5058390;28;20262;-71
2024/04/06 09:51:44;;;;;;;1.17;0.80;;;19.80;99.90;;;;;;5055962;28;20055;-70
2024/04/06 09:54:10;;;;;;;3.20;1.02;;;19.90;99.90;;;;;;5067291;28;20481;-68
2024/04/06 09:56:35;;;;;;;1.55;0.80;;;20.10;99.90;;;;;;5048724;28;20036;-73
2024/04/06 09:59:01;;;;;;;5.43;1.10;;;20.10;99.90;;;;;;5067551;28;20033;-70
2024/04/06 10:01:27;;;;;;;2.50;0.80;;;20.20;99.90;;;;;;5064257;28;20041;-68
2024/04/06 10:03:52;;;;;;;2.70;1.35;;;20.30;99.90;;;;;;5064568;28;20028;-70
2024/04/06 10:06:28;;;;;;;1.45;0.80;;;20.50;99.90;;;;;;5056984;28;20513;-68
2024/04/06 10:09:00;;;;;;;1.23;0.82;;;20.60;99.90;;;;;;5060209;28;20561;-66
2024/04/06 10:11:28;;;;;;;1.90;0.90;;;20.90;99.90;;;;;;5061992;28;20094;-66
2024/04/06 10:13:57;;;;;;;;;;;21.10;99.90;;;;;;5057344;28;20040;-67
2024/04/06 10:16:25;;;;;;;1.85;0.82;;;21.30;99.90;;;;;;5055388;28;19912;-68
2024/04/06 10:18:50;;;;;;;;;;;21.50;99.90;;;;;;5062418;28;20032;-68
2024/04/06 10:21:16;;;;;;;2.67;0.95;;;21.70;99.90;;;;;;5061405;28;19927;-69
2024/04/06 10:23:46;;;;;;;7.07;1.08;;;21.90;99.90;;;;;;5036171;28;20036;-68
2024/04/06 10:26:16;;;;;;;2.65;0.80;;;22.20;99.90;;;;;;5051078;28;20509;-69
2024/04/06 10:28:44;;;;;;;3.72;0.88;;;22.50;99.90;;;;;;5053334;28;20052;-69
2024/04/06 10:31:10;;;;;;;3.00;1.05;;;22.80;99.90;;;;;;5061201;28;20102;-69
2024/04/06 10:33:39;;;;;;;4.93;0.90;;;23.20;99.90;;;;;;5059071;28;20090;-69
2024/04/06 10:36:12;;;;;;;3.35;0.93;;;23.50;99.90;;;;;;5062120;28;20048;-68
2024/04/06 10:38:44;;;;;;;5.72;1.05;;;23.80;99.30;;;;;;5063876;28;20178;-68
2024/04/06 10:41:09;;;;;;;4.75;1.20;;;24.20;99.00;;;;;;5064231;28;20044;-68
2024/04/06 10:43:36;;;;;;;5.25;1.15;;;24.40;99.70;;;;;;5074585;28;20501;-69
2024/04/06 10:46:04;;;;;;;3.80;0.82;;;24.70;98.30;;;;;;5061559;28;20759;-71
2024/04/06 10:48:31;;;;;;;3.42;1.00;;;25.00;97.80;;;;;;5044649;28;20460;-71
2024/04/06 10:50:58;;;;;;;4.28;1.38;;;25.20;96.00;;;;;;5043790;28;20518;-70
2024/04/06 10:53:24;;;;;;;5.05;1.13;;;25.20;96.60;;;;;;5054534;28;20086;-68
2024/04/06 10:55:52;;;;;;;3.78;1.30;;;25.30;96.30;;;;;;5065347;28;20139;-68
2024/04/06 10:58:18;;;;;;;4.75;1.25;;;25.30;96.20;;;;;;5064398;28;20098;-69
2024/04/06 11:00:45;;;;;;;1.95;1.02;;;25.20;95.20;;;;;;5049539;28;20035;-70
2024/04/06 11:03:10;;;;;;;4.20;1.83;;;25.60;95.10;;;;;;5047269;28;20040;-68
2024/04/06 11:05:38;;;;;;;3.60;1.00;;;25.60;94.50;;;;;;5039152;28;20263;-68
2024/04/06 11:08:05;;;;;;;3.50;1.17;;;25.30;95.20;;;;;;5045678;28;20037;-69
2024/04/06 11:10:31;;;;;;;2.97;1.20;;;25.20;94.20;;;;;;5066637;28;20444;-68
2024/04/06 11:12:58;;;;;;;7.18;1.30;;;25.00;94.80;;;;;;5067601;28;20617;-68
2024/04/06 11:15:27;;;;;;;2.67;1.25;;;24.80;94.70;;;;;;5062759;28;20421;-69
2024/04/06 11:17:57;;;;;;;2.53;1.20;;;24.80;95.40;;;;;;5062433;28;20060;-70
2024/04/06 11:20:23;;;;;;;2.80;1.15;;;24.90;96.00;;;;;;5062187;28;20039;-69
2024/04/06 11:22:50;;;;;;;2.95;0.70;;;25.10;95.60;;;;;;5065425;28;20066;-68
2024/04/06 11:25:17;;;;;;;2.05;1.35;;;25.30;95.50;;;;;;5057304;28;20060;-69
2024/04/06 11:27:47;;;;;;;1.65;1.00;;;25.10;94.60;;;;;;5059868;28;20024;-69
2024/04/06 11:30:13;;;;;;;1.38;0.80;;;24.90;94.60;;;;;;5055743;28;20036;-64
2024/04/06 11:32:39;;;;;;;3.05;0.82;;;24.80;94.70;;;;;;5060814;28;20028;-64
2024/04/06 11:35:05;;;;;;;4.25;1.20;;;24.60;94.40;;;;;;5060400;28;20029;-69
2024/04/06 11:37:31;;;;;;;4.30;0.95;;;24.40;94.60;;;;;;5060138;28;20032;-69
2024/04/06 11:39:57;;;;;;;2.13;1.10;;;24.30;94.60;;;;;;5065696;28;20078;-68
2024/04/06 11:42:23;;;;;;;3.75;1.00;;;24.30;94.90;;;;;;5063160;28;20501;-68
2024/04/06 11:44:48;;;;;;;2.80;1.00;;;24.40;94.60;;;;;;5058921;28;20064;-69
2024/04/06 11:47:14;;;;;;;4.68;0.93;;;24.40;94.60;;;;;;5060437;28;20048;-68
2024/04/06 11:49:40;;;;;;;5.03;1.17;;;24.60;94.50;;;;;;5059455;28;20151;-68
2024/04/06 11:52:06;;;;;;;1.92;0.93;;;24.70;94.20;;;;;;5061652;28;20039;-68
2024/04/06 11:54:31;;;;;;;5.97;1.30;;;24.70;94.10;;;;;;5060319;28;20615;-68
2024/04/06 11:56:58;;;;;;;3.08;1.20;;;24.70;94.10;;;;;;5062248;28;20513;-61
2024/04/06 11:59:24;;;;;;;4.93;1.63;;;24.60;94.30;;;;;;5069403;28;20432;-61
2024/04/06 12:01:50;;;;;;;4.95;1.65;;;24.70;93.70;;;;;;5056905;28;20040;-61
2024/04/06 12:04:16;;;;;;;6.05;1.77;;;24.70;93.70;;;;;;5060121;28;20032;-64
2024/04/06 12:06:42;;;;;;;4.20;1.65;;;24.70;93.10;;;;;;5059774;28;20021;-64
2024/04/06 12:09:08;;;;;;;1.60;0.63;;;24.70;93.30;;;;;;5060165;28;20040;-64
2024/04/06 12:11:34;;;;;;;5.45;1.13;;;24.60;92.60;;;;;;5059142;28;20456;-64
2024/04/06 12:14:00;;;;;;;1.92;1.02;;;24.70;93.10;;;;;;5062002;28;20036;-64
2024/04/06 12:16:27;;;;;;;3.00;1.25;;;24.90;93.10;;;;;;5062632;28;20073;-63
2024/04/06 12:18:52;;;;;;;2.83;1.05;;;24.90;93.50;;;;;;5059991;28;20028;-65
2024/04/06 12:21:18;;;;;;;2.47;1.08;;;24.90;93.10;;;;;;5061581;28;20111;-64
2024/04/06 12:23:45;;;;;;;5.60;1.40;;;25.00;94.10;;;;;;5064303;28;20196;-70
2024/04/06 12:26:11;;;;;;;2.13;1.15;;;25.20;93.90;;;;;;5078139;28;20106;-72
2024/04/06 12:28:38;;;;;;;3.00;1.30;;;25.30;92.90;;;;;;5062263;28;20049;-65
2024/04/06 12:31:04;;;;;;;2.03;1.23;;;25.50;92.80;;;;;;5063031;28;20395;-70
2024/04/06 12:33:29;;;;;;;3.88;1.08;;;25.80;92.20;;;;;;5061003;28;20581;-69
2024/04/06 12:35:55;;;;;;;5.03;1.40;;;26.20;92.10;;;;;;5059526;28;20041;-69
2024/04/06 12:38:21;;;;;;;2.00;0.90;;;26.10;91.70;;;;;;5058846;28;20098;-69
2024/04/06 12:40:47;;;;;;;2.38;0.93;;;26.50;92.60;;;;;;5060683;28;20118;-69
2024/04/06 12:43:13;;;;;;;1.88;1.00;;;27.20;91.50;;;;;;5057571;28;20028;-70